Time;durP1;ratioP1;P1;durP2;ratioP2;P2;SDS_P1;SDS_P2;PMS_P1;PMS_P2;Temp;Humidity;BMP_temperature;BMP_pressure;BME280_temperature;BME280_humidity;BME280_pressure;Samples;Min_cycle;Max_cycle;Signal;HPM_P1;HPM_P2
2021/01/13 07:07:07;;;;;;;31.65;18.95;;;;;;;1.64;66.87;99482.86;1804533;79;28132;-66
2021/01/13 07:09:44;;;;;;;28.62;16.77;;;;;;;1.63;67.29;99487.19;1764020;81;21158;-65
2021/01/13 07:12:18;;;;;;;21.68;14.35;;;;;;;1.62;67.08;99484.56;1744083;82;21154;-68
2021/01/13 07:14:49;;;;;;;28.17;15.28;;;;;;;1.72;66.81;99477.77;1729738;82;21594;-67
2021/01/13 07:17:20;;;;;;;30.97;15.55;;;;;;;1.63;67.03;99483.30;1712826;84;21189;-67
2021/01/13 07:19:50;;;;;;;24.50;14.60;;;;;;;1.60;67.03;99474.19;1712632;82;21565;-67
2021/01/13 07:22:22;;;;;;;32.20;16.90;;;;;;;1.52;66.99;99478.88;1755175;81;21168;-59
2021/01/13 07:24:51;;;;;;;28.85;14.85;;;;;;;1.47;67.31;99478.80;1753936;82;21128;-58
2021/01/13 07:27:19;;;;;;;32.10;19.37;;;;;;;1.50;67.69;99477.98;1744346;82;21576;-67
2021/01/13 07:29:49;;;;;;;31.48;17.52;;;;;;;1.60;67.22;99485.86;1750985;82;21165;-67
2021/01/13 07:32:31;;;;;;;31.55;16.93;;;;;;;1.69;67.10;99482.92;1742426;82;21300;-67
2021/01/13 07:35:06;;;;;;;30.32;15.48;;;;;;;1.74;67.03;99479.50;1703889;83;21174;-67
2021/01/13 07:37:58;;;;;;;42.08;18.12;;;;;;;1.74;66.63;99482.54;1734088;83;21135;-68
2021/01/13 07:40:34;;;;;;;26.87;13.72;;;;;;;1.61;66.97;99480.23;1706886;83;21169;-68
2021/01/13 07:43:08;;;;;;;30.77;16.93;;;;;;;1.68;66.62;99480.73;1729959;82;21123;-68
2021/01/13 07:45:44;;;;;;;33.55;16.25;;;;;;;1.77;66.90;99472.16;1743666;82;21662;-66
2021/01/13 07:48:32;;;;;;;27.93;15.08;;;;;;;1.77;66.86;99471.75;1708339;83;21695;-67
2021/01/13 07:51:08;;;;;;;31.15;16.07;;;;;;;1.68;67.54;99469.51;1712718;82;21535;-67
2021/01/13 07:53:40;;;;;;;23.98;14.78;;;;;;;1.74;67.63;99469.56;1741288;82;21573;-67
2021/01/13 07:56:11;;;;;;;22.75;14.28;;;;;;;1.79;67.86;99467.85;1741761;82;21178;-59
2021/01/13 07:58:41;;;;;;;24.75;14.05;;;;;;;1.87;67.74;99472.69;1742071;82;21098;-58
2021/01/13 08:01:24;;;;;;;30.17;16.20;;;;;;;1.91;67.72;99474.45;1690982;82;21626;-59
2021/01/13 08:04:20;;;;;;;40.28;27.22;;;;;;;1.81;67.49;99472.63;1742389;82;21106;-59
2021/01/13 08:06:49;;;;;;;81.08;53.60;;;;;;;1.97;67.16;99474.95;1743716;81;21226;-58
2021/01/13 08:09:23;;;;;;;49.85;31.52;;;;;;;2.06;66.81;99477.59;1743950;82;21600;-59
2021/01/13 08:12:13;;;;;;;38.65;24.20;;;;;;;2.13;66.69;99473.75;1743462;81;21192;-58
2021/01/13 08:15:04;;;;;;;36.10;21.23;;;;;;;2.14;66.56;99473.78;1743293;81;21070;-58
2021/01/13 08:18:02;;;;;;;30.37;17.73;;;;;;;2.23;66.79;99475.57;1696989;82;21145;-59
2021/01/13 08:24:03;;;;;;;26.87;16.67;;;;;;;2.21;65.42;99480.73;1740331;82;21144;-59
2021/01/13 08:26:29;;;;;;;34.27;18.73;;;;;;;2.16;66.16;99472.48;1743316;82;21572;-58
2021/01/13 08:28:58;;;;;;;27.13;16.02;;;;;;;2.16;66.04;99485.05;1740233;82;21566;-58
2021/01/13 08:31:27;;;;;;;31.65;17.95;;;;;;;2.17;66.07;99485.49;1740987;82;21176;-58
2021/01/13 08:34:09;;;;;;;27.37;16.50;;;;;;;2.23;65.73;99482.06;1758402;80;21132;-59
2021/01/13 08:36:39;;;;;;;29.85;16.75;;;;;;;2.16;65.66;99490.25;1756776;82;21133;-58
2021/01/13 08:39:14;;;;;;;30.70;16.17;;;;;;;2.35;65.84;99492.95;1719422;82;21137;-68
2021/01/13 08:41:44;;;;;;;33.88;17.87;;;;;;;2.36;65.32;99495.58;1753408;82;21148;-68
2021/01/13 08:44:15;;;;;;;28.07;16.02;;;;;;;2.43;65.68;99489.98;1757332;82;21130;-68
2021/01/13 08:47:01;;;;;;;;;;;;;;;2.55;65.37;99488.33;1726952;82;21142;-68
2021/01/13 08:49:31;;;;;;;27.00;17.17;;;;;;;2.51;64.49;99487.02;1744416;82;20147;-68
2021/01/13 08:52:22;;;;;;;29.37;16.82;;;;;;;2.47;64.64;99484.37;1757091;82;21127;-59
2021/01/13 08:55:03;;;;;;;22.65;14.33;;;;;;;2.48;64.66;99479.20;1754699;81;21155;-60
2021/01/13 08:57:54;;;;;;;31.73;18.23;;;;;;;2.45;64.28;99476.58;1757144;82;21148;-59
2021/01/13 09:00:26;;;;;;;26.77;16.02;;;;;;;2.38;64.40;99473.50;1719073;82;21190;-59
2021/01/13 09:03:03;;;;;;;27.70;16.10;;;;;;;2.34;64.44;99467.84;1757260;82;21132;-59
2021/01/13 09:05:34;;;;;;;35.23;16.52;;;;;;;2.27;63.64;99465.65;1757071;81;21160;-59
2021/01/13 09:08:04;;;;;;;30.05;15.72;;;;;;;2.29;64.58;99463.93;1757422;82;21148;-59
2021/01/13 09:10:52;;;;;;;27.42;16.00;;;;;;;2.36;64.71;99450.55;1757711;82;21631;-59
2021/01/13 09:13:41;;;;;;;27.07;15.72;;;;;;;2.41;64.24;99456.64;1761521;81;21291;-59
2021/01/13 09:16:31;;;;;;;29.95;16.77;;;;;;;2.47;64.17;99448.89;1763410;81;21152;-59
2021/01/13 09:19:07;;;;;;;33.00;17.40;;;;;;;2.51;64.28;99458.44;1762608;81;21153;-59
2021/01/13 09:21:38;;;;;;;26.50;15.78;;;;;;;2.54;64.03;99457.58;1762116;81;21699;-58
2021/01/13 09:24:08;;;;;;;27.80;16.17;;;;;;;2.48;63.65;99461.02;1764720;81;21616;-59
2021/01/13 09:26:37;;;;;;;26.27;16.60;;;;;;;2.50;63.99;99456.70;1757552;82;21147;-58
2021/01/13 09:29:10;;;;;;;29.92;17.42;;;;;;;2.55;63.85;99451.52;1757692;82;21172;-69
2021/01/13 09:31:39;;;;;;;26.35;16.93;;;;;;;2.55;63.64;99455.41;1757663;82;21559;-69
2021/01/13 09:34:08;;;;;;;28.42;17.15;;;;;;;2.56;63.41;99456.30;1757914;82;21826;-69
2021/01/13 09:36:57;;;;;;;26.90;16.37;;;;;;;2.56;63.61;99460.20;1757503;82;21180;-69
2021/01/13 09:39:37;;;;;;;26.25;16.12;;;;;;;2.58;63.50;99459.78;1759606;81;21102;-59
2021/01/13 09:42:08;;;;;;;26.75;16.05;;;;;;;2.53;63.36;99454.13;1767890;81;21173;-59
2021/01/13 09:44:37;;;;;;;26.07;16.95;;;;;;;2.56;63.55;99450.66;1768072;81;21568;-69
2021/01/13 09:47:25;;;;;;;25.05;15.50;;;;;;;2.64;63.89;99445.08;1764460;81;21145;-69
2021/01/13 09:49:57;;;;;;;31.87;18.27;;;;;;;2.70;63.31;99444.67;1757763;81;21575;-71
2021/01/13 09:52:26;;;;;;;27.13;17.52;;;;;;;2.70;63.68;99449.42;1757696;82;21148;-69
2021/01/13 09:54:59;;;;;;;26.57;15.68;;;;;;;2.68;62.42;99442.05;1730806;82;21223;-69
2021/01/13 09:57:28;;;;;;;24.45;16.23;;;;;;;2.62;62.53;99435.11;1733091;82;21168;-69
2021/01/13 10:00:10;;;;;;;33.25;17.30;;;;;;;2.66;63.55;99435.98;1731949;82;21145;-69
2021/01/13 10:02:43;;;;;;;27.87;16.52;;;;;;;2.74;63.55;99432.98;1757553;82;21151;-69
2021/01/13 10:05:13;;;;;;;27.10;16.55;;;;;;;2.85;63.11;99435.66;1754416;82;21769;-69
2021/01/13 10:07:44;;;;;;;29.02;16.85;;;;;;;2.79;63.74;99429.98;1754951;81;21312;-68
2021/01/13 10:10:13;;;;;;;24.87;15.13;;;;;;;2.79;63.74;99429.98;1754656;82;21190;-68
2021/01/13 10:12:49;;;;;;;27.48;17.20;;;;;;;2.90;62.90;99439.56;1725011;82;21109;-59
2021/01/13 10:15:18;;;;;;;24.45;14.83;;;;;;;2.88;62.72;99438.23;1754711;82;21209;-63
2021/01/13 10:17:47;;;;;;;26.20;16.00;;;;;;;2.89;62.77;99430.02;1754922;82;21560;-60
2021/01/13 10:20:25;;;;;;;;;;;;;;;2.94;62.86;99421.36;1757107;81;21201;-60
2021/01/13 10:22:51;;;;;;;33.90;17.23;;;;;;;2.94;62.34;99420.52;1744065;82;20163;-60
2021/01/13 10:25:30;;;;;;;23.80;15.08;;;;;;;2.92;62.98;99415.30;1744258;81;21600;-59
2021/01/13 10:27:59;;;;;;;24.87;14.28;;;;;;;3.02;62.60;99414.91;1744453;82;21498;-60
2021/01/13 10:30:29;;;;;;;27.17;15.60;;;;;;;3.03;62.33;99410.56;1744287;81;21185;-60
2021/01/13 10:32:57;;;;;;;26.93;16.15;;;;;;;2.93;61.81;99411.83;1744610;82;21150;-60
2021/01/13 10:35:39;;;;;;;26.73;17.20;;;;;;;2.94;62.76;99407.07;1744169;81;21296;-60
2021/01/13 10:38:08;;;;;;;32.67;18.52;;;;;;;3.00;63.13;99404.05;1744373;82;21149;-60
2021/01/13 10:40:39;;;;;;;30.62;16.50;;;;;;;3.10;62.97;99405.38;1744117;81;21189;-60
2021/01/13 10:43:09;;;;;;;32.35;17.35;;;;;;;3.17;62.86;99404.09;1743975;82;21138;-60
2021/01/13 10:45:37;;;;;;;30.35;16.70;;;;;;;3.16;62.61;99398.05;1739521;82;21174;-60
2021/01/13 10:48:06;;;;;;;26.30;14.87;;;;;;;3.16;62.37;99397.16;1743996;82;21169;-60
2021/01/13 10:50:35;;;;;;;30.00;16.87;;;;;;;3.22;61.96;99398.06;1743907;82;21129;-60
2021/01/13 10:53:03;;;;;;;28.70;17.52;;;;;;;3.18;61.52;99400.22;1671610;82;21130;-60
2021/01/13 10:55:32;;;;;;;26.60;15.75;;;;;;;3.15;61.66;99402.81;1713437;82;21295;-60
2021/01/13 10:58:00;;;;;;;31.73;18.43;;;;;;;3.13;61.62;99396.73;1753103;82;21665;-60
2021/01/13 11:00:29;;;;;;;25.92;15.72;;;;;;;3.17;61.75;99404.09;1652333;84;22269;-60
2021/01/13 11:03:00;;;;;;;29.18;15.90;;;;;;;3.17;61.58;99406.28;1712120;84;21206;-60
2021/01/13 11:05:30;;;;;;;28.32;16.60;;;;;;;3.16;62.02;99403.24;1737289;82;21329;-60
2021/01/13 11:07:58;;;;;;;25.53;16.70;;;;;;;3.15;61.69;99396.72;1689511;82;21125;-61
2021/01/13 11:10:27;;;;;;;27.55;16.52;;;;;;;3.14;61.61;99406.27;1741304;82;21200;-61
2021/01/13 11:13:02;;;;;;;26.00;15.83;;;;;;;3.15;61.47;99395.42;1741230;82;21140;-70
2021/01/13 11:15:32;;;;;;;23.15;15.15;;;;;;;3.13;61.42;99398.03;1711979;82;21114;-69
2021/01/13 11:18:01;;;;;;;32.13;17.35;;;;;;;3.09;61.03;99388.48;1737841;82;21585;-69
2021/01/13 11:20:30;;;;;;;45.05;22.13;;;;;;;3.05;61.45;99386.33;1686343;82;21202;-69
2021/01/13 11:23:01;;;;;;;35.68;21.00;;;;;;;3.02;61.55;99381.53;1737832;82;21586;-68
2021/01/13 11:25:37;;;;;;;37.73;20.72;;;;;;;3.03;61.62;99386.75;1739969;82;21322;-68
2021/01/13 11:28:11;;;;;;;32.90;18.85;;;;;;;3.02;61.63;99382.42;1741126;82;21122;-61
2021/01/13 11:30:45;;;;;;;28.85;17.17;;;;;;;3.02;61.54;99385.02;1754591;82;21719;-61
2021/01/13 11:33:15;;;;;;;31.65;19.35;;;;;;;2.96;61.31;99382.39;1723523;81;21160;-61
2021/01/13 11:35:46;;;;;;;30.25;18.42;;;;;;;2.95;61.82;99379.36;1706674;82;21137;-61
2021/01/13 11:38:36;;;;;;;28.90;17.20;;;;;;;3.03;61.88;99368.97;1725644;82;21579;-60
2021/01/13 11:41:54;;;;;;;29.23;17.75;;;;;;;3.10;61.97;99370.72;1722867;83;21181;-61
2021/01/13 11:45:19;;;;;;;28.12;16.52;;;;;;;3.14;61.46;99365.97;1647560;85;21626;-71
2021/01/13 11:47:55;;;;;;;26.65;17.60;;;;;;;3.04;61.65;99363.79;1720413;82;21177;-70
2021/01/13 11:50:24;;;;;;;28.40;17.67;;;;;;;3.03;61.77;99369.86;1745802;81;21198;-69
2021/01/13 11:53:01;;;;;;;27.32;17.75;;;;;;;3.06;63.25;99362.48;1690731;82;21579;-69
2021/01/13 11:55:31;;;;;;;26.75;16.55;;;;;;;3.15;62.28;99359.90;1655662;85;21153;-68
2021/01/13 11:57:58;;;;;;;25.10;16.20;;;;;;;2.97;62.11;99366.78;1725163;83;21190;-69
2021/01/13 12:00:28;;;;;;;25.95;16.52;;;;;;;2.89;62.19;99362.00;1741202;82;21556;-68
2021/01/13 12:03:00;;;;;;;28.40;17.48;;;;;;;3.01;62.18;99360.30;1754751;82;21596;-68
2021/01/13 12:05:34;;;;;;;27.85;16.67;;;;;;;3.07;62.39;99365.52;1754216;81;21195;-68
2021/01/13 12:08:10;;;;;;;27.00;16.57;;;;;;;3.11;61.87;99375.91;1756734;81;21109;-68
2021/01/13 12:10:43;;;;;;;25.95;15.28;;;;;;;3.06;61.53;99367.67;1752462;82;21178;-68
2021/01/13 12:13:22;;;;;;;38.75;16.32;;;;;;;2.99;61.46;99373.31;1757462;82;21560;-68
2021/01/13 12:16:04;;;;;;;21.60;13.55;;;;;;;2.99;61.84;99369.41;1757679;82;21315;-68
2021/01/13 12:18:37;;;;;;;21.12;13.75;;;;;;;2.96;61.49;99365.50;1749270;82;21125;-68
2021/01/13 12:21:23;;;;;;;27.93;17.07;;;;;;;2.81;61.36;99361.98;1756611;82;21172;-68
2021/01/13 12:23:51;;;;;;;24.47;15.75;;;;;;;2.90;61.89;99356.38;1744260;82;21133;-68
2021/01/13 12:26:34;;;;;;;24.87;16.17;;;;;;;3.01;61.66;99359.88;1744303;82;21580;-67
2021/01/13 12:29:07;;;;;;;23.98;14.98;;;;;;;3.04;61.53;99360.31;1737930;82;21541;-68
2021/01/13 12:31:41;;;;;;;26.65;16.25;;;;;;;3.10;61.20;99361.17;1744377;81;21597;-68
2021/01/13 12:34:24;;;;;;;22.42;15.60;;;;;;;3.11;60.97;99360.31;1744158;82;21130;-62
2021/01/13 12:36:57;;;;;;;22.73;14.13;;;;;;;3.18;60.72;99362.51;1738057;82;21296;-68
2021/01/13 12:39:32;;;;;;;23.60;15.35;;;;;;;3.08;60.64;99360.34;1744449;82;21137;-68
2021/01/13 12:42:06;;;;;;;23.12;15.48;;;;;;;3.09;60.94;99359.44;1744236;82;21181;-68
2021/01/13 12:44:34;;;;;;;23.47;15.78;;;;;;;3.16;60.99;99360.34;1744407;82;21632;-68
2021/01/13 12:47:03;;;;;;;23.98;15.83;;;;;;;3.27;60.66;99360.34;1688216;84;21612;-68
2021/01/13 12:49:31;;;;;;;19.55;12.55;;;;;;;3.31;60.33;99359.48;1714928;84;21126;-67
2021/01/13 12:52:00;;;;;;;21.40;13.85;;;;;;;3.20;59.81;99358.18;1714546;82;21331;-67
2021/01/13 12:54:28;;;;;;;21.60;14.53;;;;;;;3.22;60.55;99364.25;1726443;82;21134;-67
2021/01/13 12:56:59;;;;;;;17.57;11.25;;;;;;;3.31;60.61;99363.83;1738573;82;21324;-68
2021/01/13 12:59:27;;;;;;;20.62;13.93;;;;;;;3.34;60.00;99369.89;1744765;82;21292;-67
2021/01/13 13:01:55;;;;;;;20.70;13.70;;;;;;;3.34;60.02;99374.20;1744349;81;21537;-62
2021/01/13 13:04:26;;;;;;;23.92;14.47;;;;;;;3.32;60.18;99378.13;1738740;82;21144;-65
2021/01/13 13:06:54;;;;;;;21.55;13.72;;;;;;;3.32;60.54;99377.23;1693865;82;21311;-68
2021/01/13 13:09:22;;;;;;;21.35;14.18;;;;;;;3.39;60.26;99381.59;1715147;84;21150;-69
2021/01/13 13:11:49;;;;;;;19.87;13.10;;;;;;;3.40;59.59;99384.63;1717088;82;21231;-61
2021/01/13 13:14:20;;;;;;;20.72;13.90;;;;;;;3.35;59.55;99383.75;1718377;82;21621;-61
2021/01/13 13:16:48;;;;;;;20.55;13.18;;;;;;;3.30;59.34;99392.86;1744649;81;21666;-61
2021/01/13 13:19:18;;;;;;;;;;;;;;;3.19;59.05;99403.67;1728083;82;21742;-61
2021/01/13 13:21:47;;;;;;;19.87;13.18;;;;;;;3.09;59.09;99404.09;1723367;82;20163;-60
2021/01/13 13:24:15;;;;;;;21.33;14.70;;;;;;;3.00;59.15;99408.84;1739147;82;21557;-61
2021/01/13 13:26:45;;;;;;;24.00;15.53;;;;;;;2.90;59.03;99413.12;1744598;81;21625;-61
2021/01/13 13:29:12;;;;;;;21.48;13.88;;;;;;;2.78;59.03;99419.15;1744788;82;21584;-61
2021/01/13 13:31:41;;;;;;;21.65;14.80;;;;;;;2.66;58.98;99426.47;1738603;81;21154;-69
2021/01/13 13:34:09;;;;;;;22.62;14.25;;;;;;;2.51;59.15;99434.17;1717447;82;21676;-68
2021/01/13 13:36:38;;;;;;;23.18;14.40;;;;;;;2.29;59.75;99441.86;1743314;82;21123;-69
2021/01/13 13:39:07;;;;;;;21.20;14.07;;;;;;;2.23;60.05;99450.91;1744688;82;21160;-69
2021/01/13 13:41:35;;;;;;;23.15;15.03;;;;;;;2.20;60.23;99458.25;1738520;82;21289;-60
2021/01/13 13:44:05;;;;;;;22.62;14.38;;;;;;;2.22;60.54;99456.51;1744631;82;21602;-60
2021/01/13 13:46:37;;;;;;;26.87;14.78;;;;;;;2.26;60.48;99451.34;1744506;82;21327;-70
2021/01/13 13:49:04;;;;;;;23.38;15.18;;;;;;;2.34;60.29;99453.14;1744901;82;21563;-70
2021/01/13 13:51:32;;;;;;;26.70;16.23;;;;;;;2.25;60.14;99459.58;1738221;82;21136;-70
2021/01/13 13:54:00;;;;;;;24.32;15.85;;;;;;;2.05;60.63;99460.28;1744429;82;21136;-60
2021/01/13 13:56:30;;;;;;;25.97;16.42;;;;;;;2.12;60.74;99462.93;1727642;82;21229;-60
2021/01/13 13:59:00;;;;;;;27.48;16.70;;;;;;;2.11;60.47;99465.97;1741366;82;21135;-60
2021/01/13 14:01:31;;;;;;;30.32;18.02;;;;;;;1.91;60.80;99470.56;1714965;82;21179;-60
2021/01/13 14:04:01;;;;;;;34.27;19.23;;;;;;;1.96;60.75;99473.63;1740862;82;21278;-59
2021/01/13 14:06:30;;;;;;;31.00;17.80;;;;;;;1.97;60.58;99476.66;1743811;82;21326;-61
2021/01/13 14:09:00;;;;;;;;;;;;;;;1.89;60.81;99480.06;1730877;82;21184;-59
2021/01/13 14:11:42;;;;;;;28.02;17.10;;;;;;;1.89;60.96;99485.25;1714901;82;20190;-60
2021/01/13 14:14:15;;;;;;;28.50;18.50;;;;;;;1.86;61.24;99485.22;1714537;84;21141;-59
2021/01/13 14:16:44;;;;;;;28.70;17.30;;;;;;;1.88;61.11;99483.95;1718245;82;21246;-59
2021/01/13 14:19:15;;;;;;;;;;;;;;;1.88;61.29;99480.91;1742444;82;21146;-59
2021/01/13 14:21:46;;;;;;;30.90;16.40;;;;;;;1.90;61.18;99483.09;1738374;81;20436;-59
2021/01/13 14:24:15;;;;;;;;;;;;;;;1.83;60.81;99485.19;1714345;83;21134;-60
2021/01/13 14:26:49;;;;;;;31.10;18.73;;;;;;;1.67;61.25;99477.70;1719441;81;20471;-60
2021/01/13 14:29:21;;;;;;;31.05;18.15;;;;;;;1.61;61.24;99488.02;1714398;84;21187;-60
2021/01/13 14:31:51;;;;;;;28.92;18.45;;;;;;;1.50;61.28;99477.54;1710955;82;21191;-58
2021/01/13 14:34:22;;;;;;;;;;;;;;;1.49;61.76;99483.58;1732774;82;21702;-70
2021/01/13 14:36:59;;;;;;;42.30;21.85;;;;;;;1.54;61.57;99484.50;1756742;80;20138;-71
2021/01/13 14:39:32;;;;;;;38.23;21.93;;;;;;;1.51;61.39;99485.77;1717421;82;21157;-59
2021/01/13 14:42:11;;;;;;;46.25;25.40;;;;;;;1.42;61.57;99485.25;1757070;80;21177;-60
2021/01/13 14:44:44;;;;;;;37.75;22.22;;;;;;;1.48;61.41;99489.63;1738211;82;21138;-59
2021/01/13 14:47:15;;;;;;;35.20;21.17;;;;;;;1.47;61.49;99486.17;1722044;82;21210;-59
2021/01/13 14:49:44;;;;;;;28.15;16.90;;;;;;;1.46;61.02;99492.22;1713450;84;21178;-59
2021/01/13 14:52:16;;;;;;;32.20;20.05;;;;;;;1.35;60.98;99489.92;1734275;82;21344;-59
2021/01/13 14:57:23;;;;;;;33.42;19.17;;;;;;;1.17;61.04;99497.07;1827145;77;22152;-70
2021/01/13 14:59:51;;;;;;;32.42;19.87;;;;;;;0.97;61.60;99499.42;1795056;78;21510;-58
2021/01/13 15:02:23;;;;;;;31.65;19.07;;;;;;;0.98;61.53;99495.55;1777989;80;21103;-58
2021/01/13 15:04:51;;;;;;;28.77;18.87;;;;;;;0.96;61.67;99502.42;1778973;80;21300;-58
2021/01/13 15:07:20;;;;;;;30.00;17.85;;;;;;;0.92;61.39;99505.83;1776524;80;21594;-58
2021/01/13 15:09:48;;;;;;;25.88;15.53;;;;;;;0.80;61.29;99516.05;1774890;80;21162;-58
2021/01/13 15:12:17;;;;;;;29.35;17.95;;;;;;;0.72;61.07;99519.81;1768350;80;21588;-58
2021/01/13 15:14:47;;;;;;;29.87;16.80;;;;;;;0.59;61.23;99517.07;1775616;80;21146;-57
2021/01/13 15:17:15;;;;;;;31.75;20.30;;;;;;;0.50;61.28;99511.75;1761516;81;21312;-57
2021/01/13 15:19:44;;;;;;;35.43;20.30;;;;;;;0.40;61.88;99513.34;1772247;80;21110;-58
2021/01/13 15:22:13;;;;;;;34.27;20.50;;;;;;;0.47;62.10;99519.88;1765400;80;21146;-70
2021/01/13 15:24:47;;;;;;;30.35;18.60;;;;;;;0.56;62.63;99521.31;1758252;81;21216;-70
2021/01/13 15:27:18;;;;;;;33.50;19.73;;;;;;;0.64;62.44;99522.30;1758440;81;21621;-57
2021/01/13 15:29:50;;;;;;;31.75;17.80;;;;;;;0.69;62.61;99515.47;1780678;80;21565;-57
2021/01/13 15:32:20;;;;;;;38.40;21.55;;;;;;;0.76;62.55;99519.00;1774247;80;21268;-57
2021/01/13 15:34:50;;;;;;;123.58;61.40;;;;;;;0.72;62.08;99518.11;1779136;80;21134;-57
2021/01/13 15:37:19;;;;;;;358.82;105.72;;;;;;;0.58;61.73;99517.92;1773772;80;21138;-57
2021/01/13 15:39:48;;;;;;;575.65;252.20;;;;;;;0.48;61.80;99515.15;1773664;80;21190;-57
2021/01/13 15:42:18;;;;;;;356.27;131.43;;;;;;;0.43;62.26;99519.86;1741920;80;21558;-57
2021/01/13 15:48:46;;;;;;;91.57;37.78;;;;;;;0.40;61.94;99521.11;1817843;77;22196;-57
2021/01/13 15:51:14;;;;;;;58.35;29.85;;;;;;;0.27;61.80;99531.67;1758096;80;21126;-71
2021/01/13 15:53:43;;;;;;;56.45;27.62;;;;;;;0.19;61.69;99528.52;1758595;81;21131;-58
2021/01/13 15:56:13;;;;;;;71.90;32.88;;;;;;;0.09;61.77;99527.52;1761849;81;21605;-71
2021/01/13 15:59:03;;;;;;;41.83;23.32;;;;;;;-0.01;62.15;99532.52;1760308;81;21573;-57
2021/01/13 16:01:31;;;;;;;42.23;23.77;;;;;;;-0.04;62.09;99536.79;1755831;81;21573;-58
2021/01/13 16:03:59;;;;;;;36.83;21.15;;;;;;;-0.10;62.42;99536.68;1760682;81;21638;-73
2021/01/13 16:06:29;;;;;;;43.73;23.60;;;;;;;-0.18;62.25;99530.94;1762403;81;21551;-58
2021/01/13 16:08:58;;;;;;;38.65;20.97;;;;;;;-0.18;62.84;99532.23;1754121;81;21546;-58
2021/01/13 16:11:27;;;;;;;39.33;20.80;;;;;;;-0.10;62.96;99533.66;1752465;81;21566;-71
2021/01/13 16:14:00;;;;;;;34.95;21.37;;;;;;;-0.04;63.23;99541.97;1749555;81;21304;-71
2021/01/13 16:16:28;;;;;;;33.70;20.10;;;;;;;0.07;63.41;99545.58;1735748;81;21153;-71
2021/01/13 16:18:57;;;;;;;34.25;19.95;;;;;;;0.14;63.11;99549.16;1753705;81;21146;-71
2021/01/13 16:21:28;;;;;;;33.45;18.87;;;;;;;0.03;63.23;99553.28;1735218;81;21102;-70
2021/01/13 16:23:56;;;;;;;35.15;19.40;;;;;;;-0.07;63.31;99552.26;1731673;83;21119;-70
2021/01/13 16:26:26;;;;;;;31.45;19.35;;;;;;;-0.03;63.21;99555.35;1743430;81;21567;-58
2021/01/13 16:28:56;;;;;;;34.08;18.52;;;;;;;-0.05;63.60;99545.39;1739701;81;21134;-59
2021/01/13 16:31:33;;;;;;;31.85;18.00;;;;;;;0.06;63.53;99558.07;1758428;81;21135;-71
2021/01/13 16:34:02;;;;;;;33.92;20.65;;;;;;;-0.01;63.69;99548.48;1721415;83;21114;-59
2021/01/13 16:36:32;;;;;;;33.05;19.30;;;;;;;0.13;63.42;99556.48;1721334;83;21193;-58
2021/01/13 16:39:02;;;;;;;33.20;18.85;;;;;;;0.03;63.77;99557.16;1721337;82;21161;-59
2021/01/13 16:41:35;;;;;;;36.03;20.32;;;;;;;0.11;63.59;99556.88;1721589;82;21201;-58
2021/01/13 16:44:05;;;;;;;34.55;19.62;;;;;;;0.14;63.49;99555.63;1693246;83;21556;-59
2021/01/13 16:46:35;;;;;;;31.12;18.80;;;;;;;0.13;63.50;99555.19;1721232;83;21169;-58
2021/01/13 16:49:08;;;;;;;35.10;19.85;;;;;;;0.14;63.78;99556.48;1635287;86;21176;-58
2021/01/13 16:51:40;;;;;;;31.05;19.70;;;;;;;0.20;63.77;99554.86;1676088;86;21619;-59
2021/01/13 16:54:11;;;;;;;39.30;21.02;;;;;;;0.24;63.68;99557.94;1694480;83;21136;-70
2021/01/13 16:56:42;;;;;;;33.65;20.27;;;;;;;0.29;64.01;99561.48;1666801;83;21578;-70
2021/01/13 16:59:13;;;;;;;27.50;14.93;;;;;;;0.39;64.11;99553.02;1648405;85;21174;-70
2021/01/13 17:01:45;;;;;;;36.70;21.52;;;;;;;0.49;64.21;99560.91;1651399;85;21265;-70
2021/01/13 17:04:14;;;;;;;39.55;21.52;;;;;;;0.56;64.28;99558.45;1656975;85;21142;-58
2021/01/13 17:06:47;;;;;;;38.33;22.73;;;;;;;0.64;64.22;99559.00;1650380;86;21204;-58
2021/01/13 17:09:16;;;;;;;40.52;23.57;;;;;;;0.69;64.14;99556.91;1708909;83;21143;-58
2021/01/13 17:11:44;;;;;;;41.75;23.25;;;;;;;0.66;64.07;99558.16;1710823;82;21626;-69
2021/01/13 17:14:13;;;;;;;38.85;23.50;;;;;;;0.60;64.54;99552.89;1711619;83;21122;-70
2021/01/13 17:16:41;;;;;;;42.62;23.87;;;;;;;0.67;64.77;99553.42;1673932;85;21323;-70
2021/01/13 17:19:09;;;;;;;39.45;22.95;;;;;;;0.73;64.69;99556.11;1673822;85;21182;-70
2021/01/13 17:21:40;;;;;;;39.53;22.05;;;;;;;0.88;64.43;99560.64;1673903;84;21147;-70
2021/01/13 17:24:10;;;;;;;137.35;50.58;;;;;;;0.96;64.21;99557.28;1634925;86;21703;-70
2021/01/13 17:26:42;;;;;;;75.20;31.93;;;;;;;1.02;64.37;99556.08;1659198;86;21220;-58
2021/01/13 17:29:13;;;;;;;89.77;34.03;;;;;;;1.04;64.10;99563.45;1657906;86;21142;-58
2021/01/13 17:31:41;;;;;;;65.20;30.17;;;;;;;0.96;64.50;99550.36;1651468;85;21637;-58
2021/01/13 17:34:10;;;;;;;43.80;23.10;;;;;;;0.87;64.71;99555.01;1708860;83;21143;-58
2021/01/13 17:36:38;;;;;;;46.68;25.20;;;;;;;0.82;64.66;99553.22;1660787;86;21215;-58
2021/01/13 17:39:07;;;;;;;48.55;25.97;;;;;;;0.86;64.73;99555.00;1663785;86;21623;-70
2021/01/13 17:41:35;;;;;;;43.85;25.20;;;;;;;0.89;64.98;99558.90;1700343;83;21286;-70
2021/01/13 17:44:06;;;;;;;51.28;27.42;;;;;;;0.95;65.03;99565.91;1714339;83;21141;-70
2021/01/13 17:46:34;;;;;;;103.53;37.85;;;;;;;0.94;64.93;99563.72;1723454;82;21134;-70
2021/01/13 17:49:03;;;;;;;100.27;42.05;;;;;;;0.96;65.20;99568.50;1731589;81;21576;-69
2021/01/13 17:51:53;;;;;;;191.35;62.48;;;;;;;0.97;65.26;99561.62;1694777;84;21164;-57
2021/01/13 17:54:21;;;;;;;98.70;38.73;;;;;;;0.95;64.94;99563.31;1681885;85;21551;-58
2021/01/13 17:56:52;;;;;;;228.90;66.57;;;;;;;0.93;65.10;99562.42;1679016;85;21197;-57
2021/01/13 17:59:20;;;;;;;106.30;39.55;;;;;;;1.04;64.90;99569.48;1663704;85;21206;-57
2021/01/13 18:01:50;;;;;;;168.32;52.90;;;;;;;1.00;65.18;99568.99;1668955;85;21177;-57
2021/01/13 18:04:17;;;;;;;360.95;105.07;;;;;;;1.00;64.95;99559.06;1669548;86;21585;-58
2021/01/13 18:06:46;;;;;;;179.00;58.58;;;;;;;1.00;64.77;99560.37;1667223;86;21971;-58
2021/01/13 18:09:13;;;;;;;205.95;63.20;;;;;;;1.00;65.04;99558.63;1655997;86;21239;-58
2021/01/13 18:11:41;;;;;;;218.17;69.65;;;;;;;1.02;65.20;99554.34;1614480;87;21216;-69
2021/01/13 18:14:12;;;;;;;255.05;80.65;;;;;;;1.06;65.20;99566.05;1652550;85;21641;-68
2021/01/13 18:16:42;;;;;;;289.65;81.78;;;;;;;1.13;65.07;99565.28;1665729;86;21624;-69
2021/01/13 18:19:11;;;;;;;;;;;;;;;1.15;65.18;99564.88;1670277;86;21168;-69
2021/01/13 18:21:41;;;;;;;212.85;63.42;;;;;;;1.26;65.08;99567.59;1635226;87;20386;-69
2021/01/13 18:24:12;;;;;;;324.48;94.58;;;;;;;1.29;64.85;99564.63;1667722;86;21294;-57
2021/01/13 18:26:41;;;;;;;368.27;101.62;;;;;;;1.29;64.73;99562.04;1667851;86;21213;-57
2021/01/13 18:29:09;;;;;;;216.60;72.97;;;;;;;1.28;64.87;99564.19;1667956;86;21693;-69
2021/01/13 18:31:41;;;;;;;110.05;42.48;;;;;;;1.34;65.38;99560.78;1660146;86;21219;-68
2021/01/13 18:34:10;;;;;;;66.07;29.98;;;;;;;1.41;65.30;99566.91;1661297;86;21308;-57
2021/01/13 18:36:42;;;;;;;49.65;26.62;;;;;;;1.42;64.93;99568.64;1656777;86;21175;-57
2021/01/13 18:39:11;;;;;;;43.13;24.67;;;;;;;1.44;64.86;99569.13;1652914;86;21614;-69
2021/01/13 18:41:46;;;;;;;56.90;28.80;;;;;;;1.42;64.77;99571.23;1635509;85;21191;-69
2021/01/13 18:44:27;;;;;;;43.95;24.45;;;;;;;1.40;64.92;99571.23;1583799;89;21223;-69
2021/01/13 18:46:57;;;;;;;42.60;24.85;;;;;;;1.44;64.93;99569.13;1554273;92;21565;-69
2021/01/13 18:49:26;;;;;;;39.48;23.02;;;;;;;1.46;64.94;99573.02;1555179;92;21191;-69
2021/01/13 18:51:54;;;;;;;37.15;21.52;;;;;;;1.48;64.93;99577.80;1554956;91;21345;-58
2021/01/13 18:54:27;;;;;;;44.20;25.10;;;;;;;1.46;64.95;99576.50;1527805;93;21351;-57
2021/01/13 18:57:00;;;;;;;43.20;24.32;;;;;;;1.46;64.94;99574.31;1522723;93;21225;-58
2021/01/13 18:59:29;;;;;;;38.95;23.20;;;;;;;1.42;64.95;99573.83;1534904;93;21626;-57
2021/01/13 19:01:59;;;;;;;38.50;23.20;;;;;;;1.44;64.91;99574.31;1526791;93;21632;-69
2021/01/13 19:04:27;;;;;;;;;;;;;;;1.48;64.92;99573.91;1526713;92;21377;-69
2021/01/13 19:06:55;;;;;;;38.00;22.73;;;;;;;1.50;64.89;99579.13;1545680;90;20226;-68